sensor_id;sensor_type;location;lat;lon;timestamp;P1;durP1;ratioP1;P2;durP2;ratioP2
49147;SDS011;41980;45.550;12.070;2023-06-05T00:02:20;4.05;;;1.65;;
49147;SDS011;41980;45.550;12.070;2023-06-05T00:08:21;4.72;;;1.60;;
49147;SDS011;41980;45.550;12.070;2023-06-05T00:14:23;3.65;;;1.38;;
49147;SDS011;41980;45.550;12.070;2023-06-05T00:20:25;3.63;;;1.17;;
49147;SDS011;41980;45.550;12.070;2023-06-05T00:26:27;2.35;;;1.20;;
49147;SDS011;41980;45.550;12.070;2023-06-05T00:32:30;2.58;;;1.13;;
49147;SDS011;41980;45.550;12.070;2023-06-05T00:38:32;1.67;;;1.00;;
49147;SDS011;41980;45.550;12.070;2023-06-05T00:44:34;2.72;;;1.15;;
49147;SDS011;41980;45.550;12.070;2023-06-05T00:50:36;2.25;;;1.10;;
49147;SDS011;41980;45.550;12.070;2023-06-05T00:56:39;1.92;;;0.80;;
49147;SDS011;41980;45.550;12.070;2023-06-05T01:02:43;2.22;;;0.90;;
49147;SDS011;41980;45.550;12.070;2023-06-05T01:08:45;3.72;;;0.95;;
49147;SDS011;41980;45.550;12.070;2023-06-05T01:14:48;3.55;;;0.90;;
49147;SDS011;41980;45.550;12.070;2023-06-05T01:20:51;2.15;;;1.08;;
49147;SDS011;41980;45.550;12.070;2023-06-05T01:39:15;2.58;;;0.98;;
49147;SDS011;41980;45.550;12.070;2023-06-05T01:45:19;1.80;;;0.82;;
49147;SDS011;41980;45.550;12.070;2023-06-05T01:51:22;1.50;;;0.80;;
49147;SDS011;41980;45.550;12.070;2023-06-05T01:57:24;2.35;;;0.90;;
49147;SDS011;41980;45.550;12.070;2023-06-05T02:03:26;2.88;;;1.40;;
49147;SDS011;41980;45.550;12.070;2023-06-05T02:09:29;2.30;;;1.40;;
49147;SDS011;41980;45.550;12.070;2023-06-05T02:15:34;1.73;;;0.90;;
49147;SDS011;41980;45.550;12.070;2023-06-05T02:21:37;2.65;;;1.65;;
49147;SDS011;41980;45.550;12.070;2023-06-05T02:27:39;3.28;;;1.48;;
49147;SDS011;41980;45.550;12.070;2023-06-05T02:33:42;2.25;;;1.20;;
49147;SDS011;41980;45.550;12.070;2023-06-05T02:39:44;2.15;;;1.20;;
49147;SDS011;41980;45.550;12.070;2023-06-05T02:45:46;2.97;;;1.90;;
49147;SDS011;41980;45.550;12.070;2023-06-05T02:51:48;3.08;;;1.60;;
49147;SDS011;41980;45.550;12.070;2023-06-05T02:57:51;3.65;;;1.83;;
49147;SDS011;41980;45.550;12.070;2023-06-05T03:04:01;3.13;;;1.92;;
49147;SDS011;41980;45.550;12.070;2023-06-05T03:10:06;3.42;;;1.80;;
49147;SDS011;41980;45.550;12.070;2023-06-05T03:16:09;2.85;;;1.50;;
49147;SDS011;41980;45.550;12.070;2023-06-05T03:22:17;3.33;;;1.52;;
49147;SDS011;41980;45.550;12.070;2023-06-05T03:28:20;2.63;;;1.38;;
49147;SDS011;41980;45.550;12.070;2023-06-05T03:34:24;2.83;;;1.10;;
49147;SDS011;41980;45.550;12.070;2023-06-05T03:40:30;1.85;;;1.13;;
49147;SDS011;41980;45.550;12.070;2023-06-05T03:46:32;3.08;;;1.13;;
49147;SDS011;41980;45.550;12.070;2023-06-05T03:52:36;1.85;;;0.95;;
49147;SDS011;41980;45.550;12.070;2023-06-05T03:58:40;3.00;;;1.48;;
49147;SDS011;41980;45.550;12.070;2023-06-05T04:04:43;1.65;;;0.95;;
49147;SDS011;41980;45.550;12.070;2023-06-05T04:10:45;2.65;;;1.10;;
49147;SDS011;41980;45.550;12.070;2023-06-05T04:16:47;3.00;;;1.27;;
49147;SDS011;41980;45.550;12.070;2023-06-05T04:22:54;2.72;;;1.55;;
49147;SDS011;41980;45.550;12.070;2023-06-05T04:28:56;2.35;;;1.40;;
49147;SDS011;41980;45.550;12.070;2023-06-05T04:34:58;2.53;;;1.30;;
49147;SDS011;41980;45.550;12.070;2023-06-05T04:41:00;2.03;;;1.27;;
49147;SDS011;41980;45.550;12.070;2023-06-05T04:47:03;2.00;;;1.23;;
49147;SDS011;41980;45.550;12.070;2023-06-05T04:53:08;2.05;;;1.00;;
49147;SDS011;41980;45.550;12.070;2023-06-05T04:59:11;1.95;;;1.20;;
49147;SDS011;41980;45.550;12.070;2023-06-05T05:05:13;2.58;;;1.33;;
49147;SDS011;41980;45.550;12.070;2023-06-05T05:11:19;2.08;;;1.00;;
49147;SDS011;41980;45.550;12.070;2023-06-05T05:17:23;2.13;;;1.00;;
49147;SDS011;41980;45.550;12.070;2023-06-05T05:23:25;1.75;;;0.73;;
49147;SDS011;41980;45.550;12.070;2023-06-05T05:29:27;2.90;;;0.88;;
49147;SDS011;41980;45.550;12.070;2023-06-05T05:35:29;1.70;;;0.70;;
49147;SDS011;41980;45.550;12.070;2023-06-05T05:41:32;2.70;;;0.98;;
49147;SDS011;41980;45.550;12.070;2023-06-05T05:47:34;1.95;;;0.90;;
49147;SDS011;41980;45.550;12.070;2023-06-05T05:53:36;1.83;;;0.95;;
49147;SDS011;41980;45.550;12.070;2023-06-05T05:59:38;2.25;;;1.35;;
49147;SDS011;41980;45.550;12.070;2023-06-05T06:05:42;1.98;;;1.00;;
49147;SDS011;41980;45.550;12.070;2023-06-05T06:11:46;2.05;;;1.10;;
49147;SDS011;41980;45.550;12.070;2023-06-05T06:17:49;3.55;;;1.27;;
49147;SDS011;41980;45.550;12.070;2023-06-05T06:23:51;2.50;;;1.20;;
49147;SDS011;41980;45.550;12.070;2023-06-05T06:29:53;2.75;;;1.40;;
49147;SDS011;41980;45.550;12.070;2023-06-05T06:35:55;2.63;;;1.70;;
49147;SDS011;41980;45.550;12.070;2023-06-05T06:41:59;3.47;;;1.48;;
49147;SDS011;41980;45.550;12.070;2023-06-05T06:48:07;2.38;;;1.38;;
49147;SDS011;41980;45.550;12.070;2023-06-05T06:54:09;3.40;;;1.65;;
49147;SDS011;41980;45.550;12.070;2023-06-05T07:00:11;2.40;;;1.65;;
49147;SDS011;41980;45.550;12.070;2023-06-05T07:54:44;3.65;;;2.95;;
49147;SDS011;41980;45.550;12.070;2023-06-05T08:00:47;5.00;;;3.60;;
49147;SDS011;41980;45.550;12.070;2023-06-05T08:06:49;4.50;;;3.35;;
49147;SDS011;41980;45.550;12.070;2023-06-05T08:12:51;3.50;;;2.80;;
49147;SDS011;41980;45.550;12.070;2023-06-05T08:18:53;4.03;;;2.88;;
49147;SDS011;41980;45.550;12.070;2023-06-05T08:24:56;4.85;;;2.90;;
49147;SDS011;41980;45.550;12.070;2023-06-05T08:31:01;3.58;;;2.45;;
49147;SDS011;41980;45.550;12.070;2023-06-05T08:37:03;3.60;;;2.30;;
49147;SDS011;41980;45.550;12.070;2023-06-05T08:43:05;3.55;;;2.35;;
49147;SDS011;41980;45.550;12.070;2023-06-05T08:49:10;3.05;;;2.03;;
49147;SDS011;41980;45.550;12.070;2023-06-05T08:55:13;3.22;;;2.00;;
49147;SDS011;41980;45.550;12.070;2023-06-05T09:01:16;3.15;;;2.28;;
49147;SDS011;41980;45.550;12.070;2023-06-05T09:07:18;4.35;;;2.03;;
49147;SDS011;41980;45.550;12.070;2023-06-05T09:13:21;3.67;;;2.30;;
49147;SDS011;41980;45.550;12.070;2023-06-05T09:25:43;2.60;;;1.90;;
49147;SDS011;41980;45.550;12.070;2023-06-05T09:31:49;3.92;;;2.53;;
49147;SDS011;41980;45.550;12.070;2023-06-05T09:37:52;3.67;;;2.00;;
49147;SDS011;41980;45.550;12.070;2023-06-05T09:43:56;2.78;;;1.52;;
49147;SDS011;41980;45.550;12.070;2023-06-05T09:49:58;2.00;;;1.33;;
49147;SDS011;41980;45.550;12.070;2023-06-05T09:56:01;2.17;;;1.33;;
49147;SDS011;41980;45.550;12.070;2023-06-05T10:02:05;2.72;;;1.38;;
49147;SDS011;41980;45.550;12.070;2023-06-05T10:08:07;3.97;;;1.92;;
49147;SDS011;41980;45.550;12.070;2023-06-05T10:14:10;2.42;;;1.48;;
49147;SDS011;41980;45.550;12.070;2023-06-05T10:20:13;2.60;;;1.10;;
49147;SDS011;41980;45.550;12.070;2023-06-05T10:26:22;2.55;;;1.33;;
49147;SDS011;41980;45.550;12.070;2023-06-05T10:38:39;1.83;;;1.00;;
49147;SDS011;41980;45.550;12.070;2023-06-05T10:44:42;2.35;;;1.00;;
49147;SDS011;41980;45.550;12.070;2023-06-05T10:50:45;1.65;;;0.70;;
49147;SDS011;41980;45.550;12.070;2023-06-05T11:02:53;2.00;;;1.10;;
49147;SDS011;41980;45.550;12.070;2023-06-05T11:15:05;1.85;;;1.10;;
49147;SDS011;41980;45.550;12.070;2023-06-05T11:21:09;1.95;;;0.90;;
49147;SDS011;41980;45.550;12.070;2023-06-05T11:33:21;2.35;;;1.05;;
49147;SDS011;41980;45.550;12.070;2023-06-05T11:39:25;1.80;;;1.00;;
49147;SDS011;41980;45.550;12.070;2023-06-05T11:51:51;1.90;;;1.20;;
49147;SDS011;41980;45.550;12.070;2023-06-05T11:57:54;2.20;;;1.33;;
49147;SDS011;41980;45.550;12.070;2023-06-05T12:10:04;3.15;;;1.70;;
49147;SDS011;41980;45.550;12.070;2023-06-05T12:16:08;3.22;;;1.70;;
49147;SDS011;41980;45.550;12.070;2023-06-05T12:22:10;2.15;;;1.30;;
49147;SDS011;41980;45.550;12.070;2023-06-05T12:40:30;1.98;;;1.33;;
49147;SDS011;41980;45.550;12.070;2023-06-05T12:46:32;2.20;;;1.42;;
49147;SDS011;41980;45.550;12.070;2023-06-05T12:52:34;2.75;;;1.40;;
49147;SDS011;41980;45.550;12.070;2023-06-05T12:58:37;2.30;;;1.40;;
49147;SDS011;41980;45.550;12.070;2023-06-05T13:04:39;2.58;;;1.48;;
49147;SDS011;41980;45.550;12.070;2023-06-05T13:10:41;3.13;;;1.55;;
49147;SDS011;41980;45.550;12.070;2023-06-05T13:16:43;2.88;;;1.73;;
49147;SDS011;41980;45.550;12.070;2023-06-05T13:22:45;2.88;;;1.48;;
49147;SDS011;41980;45.550;12.070;2023-06-05T13:28:47;2.70;;;1.80;;
49147;SDS011;41980;45.550;12.070;2023-06-05T13:34:49;2.20;;;1.50;;
49147;SDS011;41980;45.550;12.070;2023-06-05T13:40:52;3.55;;;2.25;;
49147;SDS011;41980;45.550;12.070;2023-06-05T13:46:54;2.70;;;1.70;;
49147;SDS011;41980;45.550;12.070;2023-06-05T13:52:56;2.75;;;1.65;;
49147;SDS011;41980;45.550;12.070;2023-06-05T13:58:58;3.08;;;1.90;;
49147;SDS011;41980;45.550;12.070;2023-06-05T14:05:00;2.17;;;1.42;;
49147;SDS011;41980;45.550;12.070;2023-06-05T14:11:03;4.28;;;1.70;;
49147;SDS011;41980;45.550;12.070;2023-06-05T14:17:05;2.70;;;1.67;;
49147;SDS011;41980;45.550;12.070;2023-06-05T14:23:07;2.63;;;1.73;;
49147;SDS011;41980;45.550;12.070;2023-06-05T14:29:10;4.15;;;1.63;;
49147;SDS011;41980;45.550;12.070;2023-06-05T14:35:12;2.47;;;1.40;;
49147;SDS011;41980;45.550;12.070;2023-06-05T14:41:15;1.80;;;1.02;;
49147;SDS011;41980;45.550;12.070;2023-06-05T14:47:17;2.33;;;1.17;;
49147;SDS011;41980;45.550;12.070;2023-06-05T14:53:19;3.05;;;1.20;;
49147;SDS011;41980;45.550;12.070;2023-06-05T14:59:21;2.25;;;1.30;;
49147;SDS011;41980;45.550;12.070;2023-06-05T15:05:23;2.05;;;1.40;;
49147;SDS011;41980;45.550;12.070;2023-06-05T15:11:25;3.22;;;1.00;;
49147;SDS011;41980;45.550;12.070;2023-06-05T15:17:27;2.67;;;1.35;;
49147;SDS011;41980;45.550;12.070;2023-06-05T15:23:29;2.00;;;1.05;;
49147;SDS011;41980;45.550;12.070;2023-06-05T15:29:31;1.90;;;1.00;;
49147;SDS011;41980;45.550;12.070;2023-06-05T15:35:33;2.05;;;0.90;;
49147;SDS011;41980;45.550;12.070;2023-06-05T15:41:35;2.03;;;1.00;;
49147;SDS011;41980;45.550;12.070;2023-06-05T15:47:38;1.67;;;0.80;;
49147;SDS011;41980;45.550;12.070;2023-06-05T15:53:41;1.50;;;0.73;;
49147;SDS011;41980;45.550;12.070;2023-06-05T15:59:44;1.85;;;1.00;;
49147;SDS011;41980;45.550;12.070;2023-06-05T16:05:46;1.88;;;1.15;;
49147;SDS011;41980;45.550;12.070;2023-06-05T16:11:48;2.20;;;1.42;;
49147;SDS011;41980;45.550;12.070;2023-06-05T16:17:51;2.30;;;1.50;;
49147;SDS011;41980;45.550;12.070;2023-06-05T16:23:53;2.25;;;1.20;;
49147;SDS011;41980;45.550;12.070;2023-06-05T16:29:55;1.98;;;1.23;;
49147;SDS011;41980;45.550;12.070;2023-06-05T16:35:57;2.47;;;1.55;;
49147;SDS011;41980;45.550;12.070;2023-06-05T16:42:00;1.98;;;1.33;;
49147;SDS011;41980;45.550;12.070;2023-06-05T16:48:06;2.75;;;1.63;;
49147;SDS011;41980;45.550;12.070;2023-06-05T16:54:11;3.65;;;1.67;;
49147;SDS011;41980;45.550;12.070;2023-06-05T17:00:14;2.70;;;1.75;;
49147;SDS011;41980;45.550;12.070;2023-06-05T17:06:17;2.70;;;1.20;;
49147;SDS011;41980;45.550;12.070;2023-06-05T17:12:19;1.80;;;1.10;;
49147;SDS011;41980;45.550;12.070;2023-06-05T17:18:21;2.00;;;1.13;;
49147;SDS011;41980;45.550;12.070;2023-06-05T17:24:23;1.90;;;1.30;;
49147;SDS011;41980;45.550;12.070;2023-06-05T17:30:27;2.10;;;1.40;;
49147;SDS011;41980;45.550;12.070;2023-06-05T17:36:29;2.30;;;1.58;;
49147;SDS011;41980;45.550;12.070;2023-06-05T17:42:32;2.10;;;1.38;;
49147;SDS011;41980;45.550;12.070;2023-06-05T17:48:34;2.88;;;1.20;;
49147;SDS011;41980;45.550;12.070;2023-06-05T17:54:36;2.33;;;1.52;;
49147;SDS011;41980;45.550;12.070;2023-06-05T18:00:39;2.90;;;1.30;;
49147;SDS011;41980;45.550;12.070;2023-06-05T18:06:41;1.80;;;1.00;;
49147;SDS011;41980;45.550;12.070;2023-06-05T18:12:50;2.00;;;1.20;;
49147;SDS011;41980;45.550;12.070;2023-06-05T18:18:52;1.90;;;1.00;;
49147;SDS011;41980;45.550;12.070;2023-06-05T18:24:54;1.80;;;1.10;;
49147;SDS011;41980;45.550;12.070;2023-06-05T18:30:57;1.95;;;1.08;;
49147;SDS011;41980;45.550;12.070;2023-06-05T18:36:59;2.13;;;1.20;;
49147;SDS011;41980;45.550;12.070;2023-06-05T18:43:04;1.60;;;0.90;;
49147;SDS011;41980;45.550;12.070;2023-06-05T18:49:06;2.22;;;1.40;;
49147;SDS011;41980;45.550;12.070;2023-06-05T18:55:08;2.25;;;1.30;;
49147;SDS011;41980;45.550;12.070;2023-06-05T19:01:10;1.58;;;0.70;;
49147;SDS011;41980;45.550;12.070;2023-06-05T19:07:12;1.70;;;0.90;;
49147;SDS011;41980;45.550;12.070;2023-06-05T19:13:14;1.27;;;0.73;;
49147;SDS011;41980;45.550;12.070;2023-06-05T19:19:16;2.22;;;1.10;;
49147;SDS011;41980;45.550;12.070;2023-06-05T19:25:19;2.38;;;0.88;;
49147;SDS011;41980;45.550;12.070;2023-06-05T19:31:21;1.70;;;1.00;;
49147;SDS011;41980;45.550;12.070;2023-06-05T19:37:23;1.48;;;0.82;;
49147;SDS011;41980;45.550;12.070;2023-06-05T19:43:25;1.70;;;1.00;;
49147;SDS011;41980;45.550;12.070;2023-06-05T19:49:27;1.83;;;0.90;;
49147;SDS011;41980;45.550;12.070;2023-06-05T19:55:29;1.67;;;0.80;;
49147;SDS011;41980;45.550;12.070;2023-06-05T20:01:32;1.90;;;1.10;;
49147;SDS011;41980;45.550;12.070;2023-06-05T20:07:39;1.58;;;0.80;;
49147;SDS011;41980;45.550;12.070;2023-06-05T20:13:41;1.60;;;0.90;;
49147;SDS011;41980;45.550;12.070;2023-06-05T20:19:43;2.03;;;0.93;;
49147;SDS011;41980;45.550;12.070;2023-06-05T20:25:45;2.35;;;1.48;;
49147;SDS011;41980;45.550;12.070;2023-06-05T20:31:47;2.40;;;1.33;;
49147;SDS011;41980;45.550;12.070;2023-06-05T20:37:49;1.85;;;1.02;;
49147;SDS011;41980;45.550;12.070;2023-06-05T20:43:51;1.83;;;1.20;;
49147;SDS011;41980;45.550;12.070;2023-06-05T20:49:53;1.75;;;1.10;;
49147;SDS011;41980;45.550;12.070;2023-06-05T20:55:58;1.95;;;1.30;;
49147;SDS011;41980;45.550;12.070;2023-06-05T21:02:01;3.08;;;1.30;;
49147;SDS011;41980;45.550;12.070;2023-06-05T21:08:03;2.63;;;1.50;;
49147;SDS011;41980;45.550;12.070;2023-06-05T21:14:05;3.05;;;1.73;;
49147;SDS011;41980;45.550;12.070;2023-06-05T21:20:07;2.30;;;1.55;;
49147;SDS011;41980;45.550;12.070;2023-06-05T21:26:10;2.42;;;1.42;;
49147;SDS011;41980;45.550;12.070;2023-06-05T21:32:12;2.28;;;1.40;;
49147;SDS011;41980;45.550;12.070;2023-06-05T21:38:14;2.28;;;1.25;;
49147;SDS011;41980;45.550;12.070;2023-06-05T21:44:19;2.55;;;1.75;;
49147;SDS011;41980;45.550;12.070;2023-06-05T21:50:21;3.03;;;2.25;;
49147;SDS011;41980;45.550;12.070;2023-06-05T21:56:23;2.95;;;2.25;;
49147;SDS011;41980;45.550;12.070;2023-06-05T22:02:26;2.85;;;1.80;;
49147;SDS011;41980;45.550;12.070;2023-06-05T22:08:28;4.00;;;2.88;;
49147;SDS011;41980;45.550;12.070;2023-06-05T22:14:30;3.58;;;2.40;;
49147;SDS011;41980;45.550;12.070;2023-06-05T22:20:32;5.75;;;3.53;;
49147;SDS011;41980;45.550;12.070;2023-06-05T22:26:34;4.90;;;3.10;;
49147;SDS011;41980;45.550;12.070;2023-06-05T22:32:36;3.47;;;2.38;;
49147;SDS011;41980;45.550;12.070;2023-06-05T22:38:38;3.88;;;1.80;;
49147;SDS011;41980;45.550;12.070;2023-06-05T22:44:41;2.65;;;1.88;;
49147;SDS011;41980;45.550;12.070;2023-06-05T22:50:45;3.17;;;2.10;;
49147;SDS011;41980;45.550;12.070;2023-06-05T22:56:49;2.10;;;1.55;;
49147;SDS011;41980;45.550;12.070;2023-06-05T23:02:51;2.33;;;1.67;;
49147;SDS011;41980;45.550;12.070;2023-06-05T23:08:53;3.45;;;1.77;;
49147;SDS011;41980;45.550;12.070;2023-06-05T23:14:55;1.90;;;1.30;;
49147;SDS011;41980;45.550;12.070;2023-06-05T23:20:57;2.53;;;1.42;;
49147;SDS011;41980;45.550;12.070;2023-06-05T23:26:59;2.75;;;1.70;;
49147;SDS011;41980;45.550;12.070;2023-06-05T23:33:01;2.25;;;1.38;;
49147;SDS011;41980;45.550;12.070;2023-06-05T23:39:03;2.80;;;1.60;;
49147;SDS011;41980;45.550;12.070;2023-06-05T23:45:05;2.28;;;1.60;;
49147;SDS011;41980;45.550;12.070;2023-06-05T23:51:09;2.47;;;1.58;;
49147;SDS011;41980;45.550;12.070;2023-06-05T23:57:11;2.92;;;1.30;;
